»·PEaware :: N520MP KPSP-KBUR

N520MP :: KPSP-KBUR

FLIGHT INFORMATION

Flight Status: Arrived
Operator: Privately registered:
United States
More flights under this callsign
Pilot: Manuel P. (9695)
Aircraft: BOMBARDIER BD-100 CHALLENGER 300
(CL30)
More flights by this aircraft type
Origin: KPSP Palm Springs Intl
United States
Destination: KBUR Bob Hope-Burbank
United States
More flights between these airports :: More routes between these airports
Route: +CATH1 PSP V388 PDZ V197 POM V264 ITSME V186 VNY
File this flight plan on PilotEdge
Remarks: PSPN2 TEC ROUTE
Altitude:
(Current/Filed)
12,000ft
Speed:
(Current/Filed)
400kts
Departed: 09-Jan-18 03:03 PM
Arrived: 09-Jan-18 03:40 PM
Distance/Time
Traveled:
95nm/0:37
Distance/Time
To Go:
Arrived

Flight Plot

Page will automatically refresh every two minutes.


Map Options




Map Legend


Flown Route
Filed Route
Departure Airport
Arrival Airport
Navaid (VOR, NDB)
Fix

Horizontal Profiles

Position Reports

Time Latitude Longitude Heading Altitude Ground
Speed
09-Jan-18 14:47 33.826006 -116.509988 180 484ft 0kts
09-Jan-18 14:48 33.826006 -116.509988 180 484ft 0kts
09-Jan-18 14:49 33.826006 -116.509988 180 484ft 0kts
09-Jan-18 14:50 33.826006 -116.509988 180 484ft 0kts
09-Jan-18 14:51 33.826006 -116.509988 180 484ft 0kts
09-Jan-18 14:52 33.826006 -116.509988 180 484ft 0kts
09-Jan-18 14:53 33.826006 -116.509988 180 484ft 0kts
09-Jan-18 14:54 33.826006 -116.509988 180 484ft 0kts
09-Jan-18 14:55 33.826006 -116.509988 180 484ft 0kts
09-Jan-18 14:56 33.826006 -116.509988 180 484ft 0kts
09-Jan-18 14:57 33.826006 -116.509988 180 484ft 0kts
09-Jan-18 14:58 33.826006 -116.509988 180 484ft 0kts
09-Jan-18 14:59 33.826006 -116.509988 180 484ft 0kts
09-Jan-18 15:00 33.826006 -116.509988 180 484ft 0kts
09-Jan-18 15:01 33.826006 -116.509988 180 484ft 0kts
09-Jan-18 15:02 33.825987 -116.509988 180 484ft 0kts
09-Jan-18 15:03 33.825936 -116.508687 88 483ft 6kts
09-Jan-18 15:04 33.825775 -116.506216 137 483ft 9kts
09-Jan-18 15:05 33.823423 -116.504125 143 483ft 15kts
09-Jan-18 15:06 33.819747 -116.500880 143 483ft 13kts
09-Jan-18 15:07 33.818516 -116.499210 89 484ft 0kts
09-Jan-18 15:08 33.818518 -116.498976 88 484ft 4kts
09-Jan-18 15:09 33.830254 -116.508190 323 658ft 175kts
09-Jan-18 15:10 33.872888 -116.548167 322 3165ft 205kts
09-Jan-18 15:11 33.920824 -116.592884 322 5612ft 231kts
09-Jan-18 15:12 33.972130 -116.589896 76 7969ft 240kts
09-Jan-18 15:13 33.927225 -116.548599 207 11050ft 240kts
09-Jan-18 15:14 33.925565 -116.631003 281 11963ft 278kts
09-Jan-18 15:15 33.941585 -116.725000 274 11968ft 301kts
09-Jan-18 15:16 33.943434 -116.827773 265 11937ft 320kts
09-Jan-18 15:17 33.941023 -116.940193 267 11905ft 351kts
09-Jan-18 15:18 33.937624 -117.056944 264 11815ft 313kts
09-Jan-18 15:19 33.934320 -117.150587 264 9272ft 271kts
09-Jan-18 15:20 33.930625 -117.237255 264 8988ft 267kts
09-Jan-18 15:21 33.926537 -117.331086 265 8979ft 284kts
09-Jan-18 15:22 33.922892 -117.422523 262 8982ft 266kts
09-Jan-18 15:23 33.919273 -117.508748 264 8976ft 250kts
09-Jan-18 15:24 33.953460 -117.581707 299 8977ft 251kts
09-Jan-18 15:25 33.996267 -117.653289 301 8982ft 281kts
09-Jan-18 15:26 34.043398 -117.730164 301 9010ft 291kts
09-Jan-18 15:27 34.073879 -117.810033 269 8545ft 248kts
09-Jan-18 15:28 34.075031 -117.897299 268 6664ft 280kts
09-Jan-18 15:29 34.074687 -117.988380 268 6016ft 249kts
09-Jan-18 15:30 34.095582 -118.068773 288 6032ft 264kts
09-Jan-18 15:31 34.121169 -118.154192 288 6025ft 286kts
09-Jan-18 15:32 34.136991 -118.239177 272 5980ft 247kts
09-Jan-18 15:33 34.139984 -118.318555 272 5970ft 234kts
09-Jan-18 15:34 34.142872 -118.394746 272 5967ft 219kts
09-Jan-18 15:35 34.144838 -118.467815 272 5970ft 218kts
09-Jan-18 15:36 34.146757 -118.539775 272 5970ft 215kts
09-Jan-18 15:37 34.149095 -118.613886 273 4324ft 231kts
09-Jan-18 15:38 34.152297 -118.684844 293 3955ft 212kts
09-Jan-18 15:39 34.192647 -118.688106 22 3966ft 146kts
09-Jan-18 15:40 34.201271 -118.644798 92 3971ft 145kts
09-Jan-18 15:41 34.200557 -118.594037 90 3981ft 153kts
09-Jan-18 15:42 34.200019 -118.544730 89 3638ft 146kts
09-Jan-18 15:43 34.199415 -118.493860 89 2846ft 155kts
09-Jan-18 15:44 34.198859 -118.442108 89 2012ft 146kts
09-Jan-18 15:45 34.198268 -118.395945 90 1277ft 144kts
09-Jan-18 15:46 34.197729 -118.356705 89 783ft 10kts
09-Jan-18 15:47 34.198310 -118.355262 358 784ft 0kts
09-Jan-18 15:48 34.198899 -118.359425 270 784ft 23kts
09-Jan-18 15:49 34.199452 -118.364294 273 784ft 6kts
09-Jan-18 15:50 34.199990 -118.364154 84 783ft 0kts
09-Jan-18 15:51 34.199990 -118.364154 84 783ft 0kts

Navigation Log

Ident Type
Flight plan parsing failed, navigation log unavailable